createdAt,value
2022-10-05T00:00:26.177Z,3.45
2022-10-05T00:03:29.196Z,3.60
2022-10-05T00:06:17.184Z,3.65
2022-10-05T00:08:51.250Z,4.07
2022-10-05T00:11:32.256Z,3.47
2022-10-05T00:14:24.279Z,3.90
2022-10-05T00:17:05.205Z,3.40
2022-10-05T00:19:46.617Z,3.85
2022-10-05T00:22:37.184Z,3.55
2022-10-05T00:25:23.186Z,3.90
2022-10-05T00:28:12.216Z,4.78
2022-10-05T00:31:10.170Z,4.03
2022-10-05T00:33:58.192Z,4.55
2022-10-05T00:36:32.253Z,3.75
2022-10-05T00:39:20.173Z,4.32
2022-10-05T00:42:10.200Z,4.22
2022-10-05T00:45:02.173Z,4.07
2022-10-05T00:47:58.202Z,4.22
2022-10-05T00:51:15.201Z,5.07
2022-10-05T00:53:59.219Z,4.38
2022-10-05T00:56:55.173Z,5.28
2022-10-05T00:59:47.394Z,5.40
2022-10-05T01:02:48.237Z,5.03
2022-10-05T01:05:28.248Z,5.47
2022-10-05T01:08:29.194Z,5.25
2022-10-05T01:11:24.259Z,5.70
2022-10-05T01:14:11.199Z,5.60
2022-10-05T01:17:11.252Z,4.85
2022-10-05T01:19:57.197Z,5.70
2022-10-05T01:22:41.272Z,5.50
2022-10-05T01:25:27.190Z,6.15
2022-10-05T01:28:37.338Z,4.97
2022-10-05T01:31:23.370Z,4.65
2022-10-05T01:34:20.290Z,5.60
2022-10-05T01:37:21.216Z,5.05
2022-10-05T01:40:15.204Z,5.05
2022-10-05T01:43:13.214Z,7.38
2022-10-05T01:46:16.283Z,5.45
2022-10-05T01:48:56.202Z,4.65
2022-10-05T01:51:50.242Z,4.93
2022-10-05T01:54:24.112Z,4.97
2022-10-05T01:57:47.203Z,5.47
2022-10-05T02:00:21.600Z,4.40
2022-10-05T02:03:27.208Z,4.95
2022-10-05T02:06:21.196Z,5.30
2022-10-05T02:09:12.218Z,5.53
2022-10-05T02:11:48.681Z,5.20
2022-10-05T02:14:39.192Z,5.28
2022-10-05T02:17:24.318Z,4.50
2022-10-05T02:20:15.201Z,5.50
2022-10-05T02:23:00.244Z,4.82
2022-10-05T02:25:50.217Z,4.75
2022-10-05T02:28:33.417Z,4.30
2022-10-05T02:31:30.256Z,4.68
2022-10-05T02:34:23.266Z,4.40
2022-10-05T02:37:47.228Z,4.40
2022-10-05T02:40:40.274Z,3.72
2022-10-05T02:43:30.193Z,3.92
2022-10-05T02:46:13.506Z,3.58
2022-10-05T02:49:03.191Z,3.67
2022-10-05T02:51:44.305Z,4.90
2022-10-05T02:54:45.192Z,3.58
2022-10-05T02:57:43.304Z,4.30
2022-10-05T03:00:31.183Z,4.25
2022-10-05T03:03:40.226Z,4.70
2022-10-05T03:06:36.186Z,4.00
2022-10-05T03:09:24.201Z,3.85
2022-10-05T03:12:09.283Z,4.22
2022-10-05T03:15:04.221Z,4.80
2022-10-05T03:17:58.323Z,5.22
2022-10-05T03:20:56.208Z,4.05
2022-10-05T03:23:50.287Z,5.43
2022-10-05T03:26:47.491Z,4.55
2022-10-05T03:29:21.308Z,4.68
2022-10-05T03:32:16.226Z,4.72
2022-10-05T03:35:02.265Z,5.70
2022-10-05T03:37:58.437Z,5.65
2022-10-05T03:40:32.265Z,4.82
2022-10-05T03:43:29.243Z,4.60
2022-10-05T03:46:03.382Z,4.82
2022-10-05T03:49:17.248Z,4.22
2022-10-05T03:51:59.278Z,4.82
2022-10-05T03:54:49.224Z,4.57
2022-10-05T03:57:26.291Z,5.65
2022-10-05T04:00:19.224Z,5.57
2022-10-05T04:03:09.297Z,4.63
2022-10-05T04:06:03.202Z,6.03
2022-10-05T04:11:34.225Z,4.47
2022-10-05T04:14:19.255Z,5.80
2022-10-05T04:17:05.232Z,5.85
2022-10-05T04:19:55.215Z,5.43
2022-10-05T04:22:39.248Z,5.82
2022-10-05T04:25:32.225Z,6.32
2022-10-05T04:28:19.181Z,5.78
2022-10-05T04:31:07.257Z,6.22
2022-10-05T04:33:41.132Z,6.05
2022-10-05T04:36:47.568Z,4.85
2022-10-05T04:39:41.234Z,6.10
2022-10-05T04:42:53.229Z,5.80
2022-10-05T04:45:45.212Z,6.20
2022-10-05T04:48:35.246Z,6.30
2022-10-05T04:51:09.133Z,5.72
2022-10-05T04:53:57.223Z,5.35
2022-10-05T04:56:37.015Z,4.75
2022-10-05T04:59:32.228Z,5.72
2022-10-05T05:02:13.262Z,6.45
2022-10-05T05:05:05.964Z,5.25
2022-10-05T05:08:04.260Z,4.68
2022-10-05T05:10:46.243Z,4.80
2022-10-05T05:13:39.318Z,6.07
2022-10-05T05:16:28.288Z,5.50
2022-10-05T05:19:36.219Z,4.72
2022-10-05T05:22:17.249Z,5.72
2022-10-05T05:25:12.345Z,5.70
2022-10-05T05:27:59.291Z,4.95
2022-10-05T05:30:55.286Z,5.15
2022-10-05T05:33:35.251Z,5.70
2022-10-05T05:36:37.307Z,4.65
2022-10-05T05:39:27.229Z,5.47
2022-10-05T05:42:31.236Z,6.07
2022-10-05T05:45:26.490Z,5.85
2022-10-05T05:48:19.244Z,5.95
2022-10-05T05:50:58.722Z,5.18
2022-10-05T05:54:00.265Z,4.72
2022-10-05T05:56:36.486Z,5.07
2022-10-05T05:59:24.252Z,5.45
2022-10-05T06:02:06.211Z,4.38
2022-10-05T06:04:54.233Z,5.05
2022-10-05T06:07:31.024Z,5.03
2022-10-05T06:10:27.235Z,5.25
2022-10-05T06:13:08.297Z,5.50
2022-10-05T06:16:02.273Z,4.05
2022-10-05T06:18:46.255Z,4.07
2022-10-05T06:21:40.241Z,3.22
2022-10-05T06:24:46.639Z,3.25
2022-10-05T06:27:41.266Z,5.93
2022-10-05T06:30:16.598Z,4.25
2022-10-05T06:33:04.260Z,4.40
2022-10-05T06:35:48.314Z,5.28
2022-10-05T06:38:55.241Z,4.78
2022-10-05T06:41:47.815Z,4.72
2022-10-05T06:45:01.249Z,5.53
2022-10-05T06:47:50.312Z,3.15
2022-10-05T06:51:05.232Z,5.10
2022-10-05T06:54:04.644Z,5.57
2022-10-05T06:57:10.237Z,5.43
2022-10-05T06:59:51.111Z,5.15
2022-10-05T07:02:52.259Z,5.43
2022-10-05T07:05:32.229Z,5.00
2022-10-05T07:08:29.247Z,3.13
2022-10-05T07:11:18.786Z,4.85
2022-10-05T07:14:36.275Z,4.85
2022-10-05T07:17:31.765Z,4.63
2022-10-05T07:20:25.256Z,6.38
2022-10-05T07:23:18.044Z,4.00
2022-10-05T07:26:11.256Z,3.80
2022-10-05T07:28:48.753Z,4.60
2022-10-05T07:31:42.299Z,5.10
2022-10-05T07:34:18.889Z,4.68
2022-10-05T07:37:40.264Z,5.90
2022-10-05T07:40:29.245Z,4.88
2022-10-05T07:43:14.635Z,5.13
2022-10-05T07:46:21.333Z,5.30
2022-10-05T07:49:07.379Z,5.10
2022-10-05T07:52:07.281Z,5.68
2022-10-05T07:54:51.265Z,6.28
2022-10-05T07:57:58.277Z,5.05
2022-10-05T08:00:51.267Z,5.35
2022-10-05T08:03:35.348Z,4.80
2022-10-05T08:06:36.276Z,5.85
2022-10-05T08:09:13.323Z,5.45
2022-10-05T08:12:09.271Z,5.53
2022-10-05T08:15:06.304Z,5.05
2022-10-05T08:20:30.334Z,4.10
2022-10-05T08:23:45.268Z,6.03
2022-10-05T08:26:31.259Z,4.40
2022-10-05T08:29:13.934Z,4.88
2022-10-05T08:32:19.262Z,4.53
2022-10-05T08:35:32.319Z,5.47
2022-10-05T08:38:13.276Z,5.00
2022-10-05T08:41:10.249Z,4.30
2022-10-05T08:44:20.287Z,4.90
2022-10-05T08:47:13.252Z,4.85
2022-10-05T08:50:32.257Z,5.40
2022-10-05T08:53:38.280Z,5.13
2022-10-05T08:56:26.381Z,4.00
2022-10-05T08:59:33.271Z,4.50
2022-10-05T09:02:20.367Z,4.88
2022-10-05T09:04:54.355Z,5.18
2022-10-05T09:07:41.290Z,3.75
2022-10-05T09:10:44.298Z,4.90
2022-10-05T09:13:23.728Z,5.05
2022-10-05T09:16:25.415Z,5.40
2022-10-05T09:19:06.302Z,5.50
2022-10-05T09:21:53.385Z,5.95
2022-10-05T09:24:55.295Z,3.95
2022-10-05T09:27:49.305Z,5.43
2022-10-05T09:30:23.480Z,4.40
2022-10-05T09:33:32.271Z,4.22
2022-10-05T09:36:15.313Z,4.15
2022-10-05T09:39:03.271Z,4.03
2022-10-05T09:41:39.946Z,4.57
2022-10-05T09:44:34.312Z,4.80
2022-10-05T09:47:45.654Z,4.85
2022-10-05T09:50:59.301Z,4.72
2022-10-05T09:53:58.296Z,5.18
2022-10-05T09:57:05.315Z,4.03
2022-10-05T10:00:23.299Z,4.43
2022-10-05T10:03:20.342Z,4.63
2022-10-05T10:06:12.851Z,6.30
2022-10-05T10:09:09.295Z,5.47
2022-10-05T10:12:21.294Z,4.63
2022-10-05T10:15:14.346Z,4.78
2022-10-05T10:18:20.415Z,3.65
2022-10-05T10:21:07.329Z,4.20
2022-10-05T10:24:08.306Z,4.93
2022-10-05T10:27:23.293Z,4.50
2022-10-05T10:30:34.425Z,5.18
2022-10-05T10:33:54.288Z,3.95
2022-10-05T10:36:46.456Z,4.90
2022-10-05T10:39:46.302Z,4.97
2022-10-05T10:43:01.276Z,3.65
2022-10-05T10:45:58.422Z,4.32
2022-10-05T10:48:38.373Z,4.03
2022-10-05T10:51:39.326Z,4.22
2022-10-05T10:54:19.396Z,3.42
2022-10-05T10:57:16.285Z,3.30
2022-10-05T10:59:57.321Z,3.75
2022-10-05T11:02:50.384Z,3.97
2022-10-05T11:05:33.363Z,3.80
2022-10-05T11:08:42.322Z,4.45
2022-10-05T11:11:22.635Z,3.88
2022-10-05T11:14:09.357Z,4.40
2022-10-05T11:16:57.307Z,4.18
2022-10-05T11:20:03.489Z,5.18
2022-10-05T11:23:18.319Z,5.05
2022-10-05T11:25:58.319Z,5.05
2022-10-05T11:28:57.391Z,4.32
2022-10-05T11:31:40.416Z,4.80
2022-10-05T11:34:28.326Z,4.68
2022-10-05T11:37:35.340Z,5.03
2022-10-05T11:40:43.235Z,3.90
2022-10-05T11:43:43.294Z,3.53
2022-10-05T11:46:31.383Z,3.80
2022-10-05T11:49:05.211Z,2.78
2022-10-05T11:51:56.334Z,4.05
2022-10-05T11:54:58.649Z,3.97
2022-10-05T11:57:41.319Z,3.60
2022-10-05T12:00:39.324Z,4.03
2022-10-05T12:03:44.426Z,3.90
2022-10-05T12:06:25.337Z,4.18
2022-10-05T12:09:39.318Z,3.83
2022-10-05T12:15:02.431Z,4.30
2022-10-05T12:17:57.339Z,3.75
2022-10-05T12:20:45.324Z,3.65
2022-10-05T12:23:41.408Z,2.42
2022-10-05T12:26:32.371Z,4.88
2022-10-05T12:29:13.463Z,3.97
2022-10-05T12:32:05.329Z,3.42
2022-10-05T12:35:01.105Z,3.67
2022-10-05T12:37:50.359Z,3.50
2022-10-05T12:40:53.350Z,3.83
2022-10-05T12:43:47.354Z,3.20
2022-10-05T12:46:47.318Z,3.03
2022-10-05T12:49:51.343Z,3.67
2022-10-05T12:53:02.341Z,3.13
2022-10-05T12:55:43.022Z,3.72
2022-10-05T12:58:42.321Z,3.38
2022-10-05T13:01:28.316Z,3.47
2022-10-05T13:04:36.654Z,3.33
2022-10-05T13:07:28.362Z,3.83
2022-10-05T13:10:16.332Z,3.22
2022-10-05T13:13:25.364Z,3.50
2022-10-05T13:16:54.624Z,3.38
2022-10-05T13:19:39.503Z,3.20
2022-10-05T13:22:45.345Z,3.45
2022-10-05T13:25:35.331Z,3.25
2022-10-05T13:28:29.395Z,3.08
2022-10-05T13:31:21.388Z,3.35
2022-10-05T13:34:10.432Z,2.85
2022-10-05T13:37:05.349Z,3.88
2022-10-05T13:40:12.355Z,3.10
2022-10-05T13:43:06.825Z,4.60
2022-10-05T13:46:45.367Z,3.17
2022-10-05T13:49:32.484Z,3.47
2022-10-05T13:52:15.357Z,3.50
2022-10-05T13:55:02.340Z,4.10
2022-10-05T13:57:58.355Z,3.38
2022-10-05T14:01:06.973Z,3.80
2022-10-05T14:03:54.345Z,3.50
2022-10-05T14:06:37.341Z,4.28
2022-10-05T14:09:33.429Z,3.50
2022-10-05T14:12:20.363Z,4.38
2022-10-05T14:15:10.344Z,4.18
2022-10-05T14:17:51.336Z,3.90
2022-10-05T14:20:42.390Z,3.72
2022-10-05T14:23:32.351Z,4.00
2022-10-05T14:26:34.341Z,3.88
2022-10-05T14:29:21.359Z,3.65
2022-10-05T14:32:12.436Z,3.35
2022-10-05T14:35:14.368Z,3.42
2022-10-05T14:38:07.352Z,3.65
2022-10-05T14:40:43.408Z,3.63
2022-10-05T14:43:30.377Z,4.05
2022-10-05T14:46:05.590Z,3.70
2022-10-05T14:48:53.369Z,4.43
2022-10-05T14:51:38.249Z,3.90
2022-10-05T14:54:34.374Z,4.13
2022-10-05T14:57:15.463Z,4.32
2022-10-05T15:00:18.388Z,3.85
2022-10-05T15:02:59.402Z,3.78
2022-10-05T15:05:54.411Z,3.40
2022-10-05T15:08:45.377Z,4.45
2022-10-05T15:11:39.364Z,3.42
2022-10-05T15:14:31.372Z,4.70
2022-10-05T15:17:15.384Z,4.28
2022-10-05T15:20:08.376Z,4.75
2022-10-05T15:23:09.371Z,4.75
2022-10-05T15:26:20.396Z,4.80
2022-10-05T15:29:36.455Z,5.43
2022-10-05T15:32:48.381Z,5.88
2022-10-05T15:35:38.366Z,5.25
2022-10-05T15:38:38.379Z,6.07
2022-10-05T15:41:29.367Z,6.43
2022-10-05T15:44:22.470Z,6.25
2022-10-05T15:47:40.384Z,5.07
2022-10-05T15:50:29.700Z,7.93
2022-10-05T15:53:38.388Z,10.63
2022-10-05T15:56:29.360Z,13.40
2022-10-05T15:59:58.384Z,15.20
2022-10-05T16:03:01.379Z,14.30
2022-10-05T16:06:12.411Z,13.35
2022-10-05T16:09:13.444Z,15.20
2022-10-05T16:12:19.373Z,30.60
2022-10-05T16:15:33.398Z,31.17
2022-10-05T16:18:33.381Z,26.00
2022-10-05T16:21:51.889Z,21.92
2022-10-05T16:25:09.397Z,12.55
2022-10-05T16:28:10.567Z,13.38
2022-10-05T16:30:53.470Z,13.82
2022-10-05T16:34:08.390Z,17.92
2022-10-05T16:37:04.939Z,24.00
2022-10-05T16:40:04.487Z,18.20
2022-10-05T16:42:58.760Z,16.08
2022-10-05T16:45:51.430Z,13.52
2022-10-05T16:48:28.366Z,14.55
2022-10-05T16:54:01.969Z,23.98
2022-10-05T16:56:55.423Z,16.30
2022-10-05T17:00:14.848Z,15.52
2022-10-05T17:03:21.391Z,19.83
2022-10-05T17:06:04.915Z,20.50
2022-10-05T17:09:18.391Z,15.15
2022-10-05T17:12:45.404Z,31.98
2022-10-05T17:15:45.003Z,34.83
2022-10-05T17:18:57.402Z,37.42
2022-10-05T17:21:42.362Z,78.03
2022-10-05T17:24:35.405Z,50.28
2022-10-05T17:27:42.665Z,18.98
2022-10-05T17:30:42.448Z,14.93
2022-10-05T17:33:19.439Z,29.73
2022-10-05T17:36:11.409Z,25.70
2022-10-05T17:38:52.539Z,12.95
2022-10-05T17:41:39.398Z,9.85
2022-10-05T17:44:19.583Z,10.70
2022-10-05T17:47:10.388Z,12.07
2022-10-05T17:50:22.071Z,13.32
2022-10-05T17:53:47.394Z,10.70
2022-10-05T17:56:28.460Z,10.52
2022-10-05T17:59:22.383Z,11.43
2022-10-05T18:02:38.548Z,18.13
2022-10-05T18:05:25.417Z,13.73
2022-10-05T18:08:25.810Z,10.05
2022-10-05T18:11:21.474Z,8.70
2022-10-05T18:14:31.382Z,8.35
2022-10-05T18:17:28.433Z,10.18
2022-10-05T18:20:25.381Z,10.15
2022-10-05T18:23:21.421Z,8.63
2022-10-05T18:26:27.395Z,30.30
2022-10-05T18:29:13.880Z,19.85
2022-10-05T18:32:07.401Z,15.15
2022-10-05T18:35:02.552Z,13.68
2022-10-05T18:38:12.403Z,11.38
2022-10-05T18:41:00.409Z,10.15
2022-10-05T18:44:03.400Z,11.48
2022-10-05T18:46:56.435Z,10.80
2022-10-05T18:49:30.516Z,10.63
2022-10-05T18:52:28.407Z,11.63
2022-10-05T18:55:02.486Z,11.52
2022-10-05T18:58:01.419Z,13.25
2022-10-05T19:01:00.505Z,23.02
2022-10-05T19:04:02.431Z,27.08
2022-10-05T19:06:36.456Z,29.48
2022-10-05T19:09:29.431Z,25.52
2022-10-05T19:12:09.540Z,22.23
2022-10-05T19:14:57.461Z,19.02
2022-10-05T19:17:59.548Z,17.90
2022-10-05T19:21:04.443Z,16.38
2022-10-05T19:23:57.490Z,14.40
2022-10-05T19:27:03.443Z,13.57
2022-10-05T19:29:58.440Z,13.68
2022-10-05T19:33:20.471Z,13.00
2022-10-05T19:36:13.443Z,12.18
2022-10-05T19:38:59.548Z,12.15
2022-10-05T19:41:50.423Z,13.15
2022-10-05T19:44:56.784Z,13.00
2022-10-05T19:47:53.432Z,13.48
2022-10-05T19:50:30.478Z,14.70
2022-10-05T19:55:56.520Z,16.60
2022-10-05T19:58:39.438Z,17.63
2022-10-05T20:01:31.338Z,15.68
2022-10-05T20:04:12.428Z,15.93
2022-10-05T20:06:54.445Z,15.48
2022-10-05T20:09:29.492Z,15.73
2022-10-05T20:12:17.423Z,17.88
2022-10-05T20:15:10.103Z,16.50
2022-10-05T20:18:15.427Z,14.88
2022-10-05T20:20:50.010Z,13.80
2022-10-05T20:23:37.409Z,13.07
2022-10-05T20:26:30.162Z,13.65
2022-10-05T20:29:16.413Z,12.13
2022-10-05T20:31:50.557Z,13.32
2022-10-05T20:34:40.461Z,13.15
2022-10-05T20:37:15.478Z,12.98
2022-10-05T20:40:02.457Z,13.80
2022-10-05T20:42:43.417Z,13.95
2022-10-05T20:45:31.462Z,12.68
2022-10-05T20:48:12.507Z,13.55
2022-10-05T20:50:53.423Z,13.85
2022-10-05T20:53:34.492Z,12.88
2022-10-05T20:56:14.452Z,14.02
2022-10-05T20:58:55.524Z,14.05
2022-10-05T21:01:38.440Z,13.63
2022-10-05T21:04:19.631Z,14.98
2022-10-05T21:07:00.455Z,14.27
2022-10-05T21:09:50.438Z,14.18
2022-10-05T21:12:40.452Z,12.60
2022-10-05T21:15:14.503Z,14.10
2022-10-05T21:18:03.458Z,12.77
2022-10-05T21:20:37.511Z,12.77
2022-10-05T21:23:24.422Z,13.98
2022-10-05T21:25:58.525Z,11.95
2022-10-05T21:28:46.463Z,11.77
2022-10-05T21:31:20.561Z,12.82
2022-10-05T21:34:07.459Z,11.65
2022-10-05T21:36:41.535Z,11.60
2022-10-05T21:39:29.430Z,12.18
2022-10-05T21:42:03.580Z,12.52
2022-10-05T21:44:50.444Z,12.30
2022-10-05T21:47:24.497Z,12.20
2022-10-05T21:50:14.494Z,11.70
2022-10-05T21:52:50.114Z,12.50
2022-10-05T21:55:37.445Z,13.13
2022-10-05T21:58:11.544Z,12.00
2022-10-05T22:00:58.506Z,12.93
2022-10-05T22:03:32.594Z,11.60
2022-10-05T22:06:19.441Z,11.43
2022-10-05T22:09:00.463Z,11.55
2022-10-05T22:11:48.453Z,10.77
2022-10-05T22:14:29.457Z,11.48
2022-10-05T22:17:28.448Z,10.90
2022-10-05T22:20:20.469Z,10.80
2022-10-05T22:22:54.610Z,10.48
2022-10-05T22:25:42.456Z,10.20
2022-10-05T22:28:19.554Z,11.18
2022-10-05T22:33:41.474Z,9.15
2022-10-05T22:36:23.480Z,9.63
2022-10-05T22:39:17.465Z,10.95
2022-10-05T22:44:39.063Z,8.95
2022-10-05T22:47:25.448Z,9.98
2022-10-05T22:50:00.156Z,9.75
2022-10-05T22:52:47.485Z,8.57
2022-10-05T22:55:21.603Z,9.43
2022-10-05T22:58:09.456Z,8.45
2022-10-05T23:00:59.105Z,9.32
2022-10-05T23:03:45.469Z,9.15
2022-10-05T23:06:21.610Z,8.13
2022-10-05T23:09:08.476Z,8.03
2022-10-05T23:11:52.163Z,9.45
2022-10-05T23:14:39.474Z,8.73
2022-10-05T23:17:13.600Z,8.10
2022-10-05T23:20:01.467Z,7.75
2022-10-05T23:22:42.492Z,9.07
2022-10-05T23:25:29.468Z,8.30
2022-10-05T23:28:10.573Z,8.85
2022-10-05T23:31:04.513Z,8.75
2022-10-05T23:33:51.472Z,7.85
2022-10-05T23:36:34.456Z,7.78
2022-10-05T23:39:28.448Z,7.90
2022-10-05T23:44:49.473Z,9.63
2022-10-05T23:47:23.552Z,9.98
2022-10-05T23:50:13.492Z,9.98
2022-10-05T23:52:47.521Z,9.73
2022-10-05T23:55:34.484Z,9.85
2022-10-05T23:58:08.521Z,10.07
